createdAt,value
2024-02-29T00:01:03.769Z,101264.55
2024-02-29T00:03:43.486Z,101265.64
2024-02-29T00:06:12.103Z,101263.59
2024-02-29T00:08:40.797Z,101263.90
2024-02-29T00:11:09.244Z,101267.10
2024-02-29T00:13:37.841Z,101270.02
2024-02-29T00:16:06.909Z,101271.60
2024-02-29T00:18:35.570Z,101276.08
2024-02-29T00:21:04.675Z,101279.05
2024-02-29T00:23:33.082Z,101275.37
2024-02-29T00:26:01.638Z,101270.72
2024-02-29T00:28:30.096Z,101271.30
2024-02-29T00:30:59.029Z,101270.07
2024-02-29T00:33:27.596Z,101268.77
2024-02-29T00:36:08.612Z,101265.98
2024-02-29T00:38:39.186Z,101266.75
2024-02-29T00:41:07.970Z,101266.18
2024-02-29T00:43:36.412Z,101264.55
2024-02-29T00:46:06.113Z,101266.86
2024-02-29T00:48:34.741Z,101269.70
2024-02-29T00:51:04.107Z,101266.30
2024-02-29T00:53:32.541Z,101270.23
2024-02-29T00:56:01.102Z,101272.17
2024-02-29T00:58:32.140Z,101272.77
2024-02-29T01:01:01.542Z,101268.19
2024-02-29T01:03:31.317Z,101267.13
2024-02-29T01:06:01.574Z,101266.34
2024-02-29T01:08:29.956Z,101269.75
2024-02-29T01:10:58.603Z,101272.79
2024-02-29T01:13:27.375Z,101272.85
2024-02-29T01:15:58.455Z,101278.38
2024-02-29T01:18:27.197Z,101277.02
2024-02-29T01:20:55.823Z,101279.59
2024-02-29T01:23:24.247Z,101279.37
2024-02-29T01:25:52.764Z,101281.70
2024-02-29T01:28:21.512Z,101280.27
2024-02-29T01:30:50.550Z,101285.16
2024-02-29T01:33:20.786Z,101284.47
2024-02-29T01:35:49.283Z,101287.79
2024-02-29T01:38:17.708Z,101288.88
2024-02-29T01:40:46.763Z,101290.02
2024-02-29T01:43:16.675Z,101290.70
2024-02-29T01:45:45.209Z,101287.12
2024-02-29T01:48:16.158Z,101278.67
2024-02-29T01:50:44.802Z,101275.04
2024-02-29T01:53:13.269Z,101271.97
2024-02-29T01:55:42.029Z,101271.46
2024-02-29T01:58:12.877Z,101275.23
2024-02-29T02:00:42.465Z,101278.50
2024-02-29T02:03:11.049Z,101282.23
2024-02-29T02:05:39.450Z,101285.87
2024-02-29T02:08:08.357Z,101288.90
2024-02-29T02:10:36.749Z,101286.48
2024-02-29T02:13:05.658Z,101288.67
2024-02-29T02:15:34.210Z,101283.30
2024-02-29T02:18:03.680Z,101281.98
2024-02-29T02:20:32.765Z,101281.83
2024-02-29T02:23:01.302Z,101280.38
2024-02-29T02:25:29.694Z,101281.79
2024-02-29T02:27:58.366Z,101281.46
2024-02-29T02:30:26.855Z,101282.08
2024-02-29T02:32:57.982Z,101278.75
2024-02-29T02:35:26.928Z,101283.00
2024-02-29T02:37:55.501Z,101278.21
2024-02-29T02:40:24.154Z,101276.61
2024-02-29T02:42:52.767Z,101283.02
2024-02-29T02:45:21.243Z,101281.23
2024-02-29T02:47:49.905Z,101279.56
2024-02-29T02:50:19.822Z,101281.48
2024-02-29T02:52:48.754Z,101282.71
2024-02-29T02:55:17.267Z,101282.77
2024-02-29T02:57:45.760Z,101278.39
2024-02-29T03:00:15.253Z,101277.66
2024-02-29T03:02:43.780Z,101275.83
2024-02-29T03:05:13.004Z,101274.43
2024-02-29T03:07:41.578Z,101271.34
2024-02-29T03:10:11.611Z,101271.48
2024-02-29T03:12:40.247Z,101270.15
2024-02-29T03:15:10.550Z,101271.09
2024-02-29T03:17:39.050Z,101269.65
2024-02-29T03:20:14.898Z,101273.94
2024-02-29T03:22:43.749Z,101274.16
2024-02-29T03:25:12.967Z,101275.98
2024-02-29T03:27:42.979Z,101277.46
2024-02-29T03:30:12.523Z,101275.63
2024-02-29T03:32:41.054Z,101276.10
2024-02-29T03:35:10.655Z,101273.25
2024-02-29T03:37:39.319Z,101274.34
2024-02-29T03:40:10.328Z,101268.34
2024-02-29T03:42:40.226Z,101264.61
2024-02-29T03:45:09.955Z,101265.53
2024-02-29T03:47:39.548Z,101270.29
2024-02-29T03:50:10.747Z,101266.13
2024-02-29T03:52:40.042Z,101266.14
2024-02-29T03:55:09.778Z,101260.25
2024-02-29T03:57:38.432Z,101262.33
2024-02-29T04:00:11.605Z,101256.96
2024-02-29T04:02:40.902Z,101259.21
2024-02-29T04:05:10.058Z,101261.38
2024-02-29T04:07:39.012Z,101262.29
2024-02-29T04:10:09.379Z,101267.74
2024-02-29T04:12:37.992Z,101264.91
2024-02-29T04:15:08.063Z,101265.08
2024-02-29T04:17:38.393Z,101263.66
2024-02-29T04:20:09.499Z,101264.63
2024-02-29T04:22:38.966Z,101261.15
2024-02-29T04:25:11.175Z,101263.95
2024-02-29T04:27:40.040Z,101256.23
2024-02-29T04:30:11.106Z,101251.76
2024-02-29T04:32:39.753Z,101253.98
2024-02-29T04:35:09.911Z,101254.77
2024-02-29T04:37:39.284Z,101251.01
2024-02-29T04:40:12.060Z,101257.83
2024-02-29T04:42:40.903Z,101262.24
2024-02-29T04:45:11.497Z,101265.52
2024-02-29T04:47:40.978Z,101267.17
2024-02-29T04:50:10.607Z,101269.34
2024-02-29T04:52:39.117Z,101276.64
2024-02-29T04:55:09.255Z,101275.13
2024-02-29T04:57:37.730Z,101272.73
2024-02-29T05:00:09.427Z,101276.15
2024-02-29T05:02:37.888Z,101273.90
2024-02-29T05:05:07.094Z,101273.34
2024-02-29T05:07:35.676Z,101274.17
2024-02-29T05:10:07.740Z,101280.70
2024-02-29T05:12:36.527Z,101280.69
2024-02-29T05:15:07.330Z,101282.83
2024-02-29T05:17:38.452Z,101281.39
2024-02-29T05:20:09.523Z,101286.76
2024-02-29T05:22:39.851Z,101290.94
2024-02-29T05:25:10.502Z,101289.23
2024-02-29T05:27:39.398Z,101289.45
2024-02-29T05:30:09.210Z,101288.52
2024-02-29T05:32:37.776Z,101298.30
2024-02-29T05:35:09.685Z,101301.19
2024-02-29T05:37:38.144Z,101305.34
2024-02-29T05:40:08.155Z,101308.98
2024-02-29T05:42:36.850Z,101308.70
2024-02-29T05:45:07.671Z,101307.42
2024-02-29T05:47:36.496Z,101306.06
2024-02-29T05:50:06.909Z,101307.96
2024-02-29T05:52:36.137Z,101308.27
2024-02-29T05:55:06.640Z,101307.52
2024-02-29T05:57:35.532Z,101314.61
2024-02-29T06:00:09.561Z,101317.48
2024-02-29T06:02:38.497Z,101311.91
2024-02-29T06:05:09.405Z,101311.44
2024-02-29T06:07:38.146Z,101314.13
2024-02-29T06:10:10.705Z,101315.41
2024-02-29T06:12:39.442Z,101313.05
2024-02-29T06:15:11.966Z,101313.58
2024-02-29T06:17:41.253Z,101317.20
2024-02-29T06:20:12.633Z,101319.77
2024-02-29T06:22:41.981Z,101321.13
2024-02-29T06:25:11.867Z,101320.89
2024-02-29T06:27:41.053Z,101323.20
2024-02-29T06:30:11.391Z,101320.08
2024-02-29T06:32:43.956Z,101318.73
2024-02-29T06:35:13.378Z,101323.17
2024-02-29T06:37:43.058Z,101320.80
2024-02-29T06:40:12.919Z,101318.29
2024-02-29T06:42:41.988Z,101321.27
2024-02-29T06:45:10.935Z,101321.11
2024-02-29T06:47:40.977Z,101321.23
2024-02-29T06:50:10.485Z,101320.29
2024-02-29T06:52:39.258Z,101321.38
2024-02-29T06:55:09.174Z,101324.75
2024-02-29T06:57:38.281Z,101328.79
2024-02-29T07:00:09.877Z,101331.64
2024-02-29T07:02:38.384Z,101333.87
2024-02-29T07:05:09.559Z,101329.23
2024-02-29T07:07:38.118Z,101325.55
2024-02-29T07:10:09.764Z,101332.12
2024-02-29T07:12:38.268Z,101338.43
2024-02-29T07:15:07.721Z,101338.02
2024-02-29T07:17:36.415Z,101335.67
2024-02-29T07:20:05.948Z,101332.05
2024-02-29T07:22:34.474Z,101325.67
2024-02-29T07:25:04.498Z,101318.42
2024-02-29T07:27:32.890Z,101318.14
2024-02-29T07:30:01.425Z,101326.89
2024-02-29T07:32:30.288Z,101332.21
2024-02-29T07:34:58.769Z,101331.19
2024-02-29T07:37:27.998Z,101332.52
2024-02-29T07:39:56.505Z,101334.16
2024-02-29T07:42:27.456Z,101340.80
2024-02-29T07:44:56.285Z,101337.05
2024-02-29T07:47:25.070Z,101336.41
2024-02-29T07:49:53.474Z,101337.70
2024-02-29T07:52:22.155Z,101340.27
2024-02-29T07:54:51.107Z,101337.13
2024-02-29T07:57:19.940Z,101330.84
2024-02-29T07:59:48.677Z,101335.08
2024-02-29T08:02:18.383Z,101336.27
2024-02-29T08:04:47.618Z,101335.08
2024-02-29T08:07:16.110Z,101336.39
2024-02-29T08:09:45.558Z,101337.96
2024-02-29T08:12:14.028Z,101342.78
2024-02-29T08:14:42.538Z,101340.11
2024-02-29T08:17:10.921Z,101342.67
2024-02-29T08:19:39.819Z,101341.38
2024-02-29T08:22:08.308Z,101339.30
2024-02-29T08:24:37.867Z,101341.38
2024-02-29T08:27:07.797Z,101343.36
2024-02-29T08:29:36.450Z,101342.40
2024-02-29T08:32:06.947Z,101342.93
2024-02-29T08:34:35.562Z,101341.43
2024-02-29T08:37:04.105Z,101338.35
2024-02-29T08:39:35.816Z,101339.09
2024-02-29T08:42:04.510Z,101331.59
2024-02-29T08:44:34.017Z,101333.77
2024-02-29T08:47:05.230Z,101338.61
2024-02-29T08:49:33.716Z,101335.73
2024-02-29T08:52:02.802Z,101333.98
2024-02-29T08:54:31.354Z,101332.61
2024-02-29T08:57:03.943Z,101331.23
2024-02-29T08:59:33.339Z,101328.27
2024-02-29T09:02:06.041Z,101324.56
2024-02-29T09:04:35.593Z,101325.36
2024-02-29T09:07:04.829Z,101327.55
2024-02-29T09:09:33.413Z,101327.27
2024-02-29T09:12:01.943Z,101329.44
2024-02-29T09:14:30.529Z,101331.73
2024-02-29T09:16:59.094Z,101332.37
2024-02-29T09:19:27.535Z,101327.80
2024-02-29T09:21:56.814Z,101327.00
2024-02-29T09:24:25.427Z,101330.59
2024-02-29T09:26:54.050Z,101328.61
2024-02-29T09:29:25.632Z,101329.73
2024-02-29T09:31:55.642Z,101330.72
2024-02-29T09:34:24.975Z,101331.19
2024-02-29T09:36:53.552Z,101327.83
2024-02-29T09:39:22.107Z,101330.72
2024-02-29T09:42:08.462Z,101331.15
2024-02-29T09:44:39.990Z,101333.20
2024-02-29T09:47:09.752Z,101331.16
2024-02-29T09:49:42.235Z,101333.41
2024-02-29T09:52:15.243Z,101333.27
2024-02-29T09:54:44.470Z,101333.67
2024-02-29T09:57:14.073Z,101332.88
2024-02-29T09:59:43.989Z,101336.77
2024-02-29T10:02:16.030Z,101335.15
2024-02-29T10:04:49.140Z,101332.14
2024-02-29T10:07:17.993Z,101333.35
2024-02-29T10:09:46.616Z,101328.02
2024-02-29T10:12:18.659Z,101325.02
2024-02-29T10:14:47.908Z,101328.22
2024-02-29T10:17:17.428Z,101328.27
2024-02-29T10:19:52.794Z,101327.55
2024-02-29T10:22:22.058Z,101327.66
2024-02-29T10:24:55.265Z,101321.00
2024-02-29T10:27:23.801Z,101322.80
2024-02-29T10:29:52.518Z,101319.41
2024-02-29T10:32:22.511Z,101318.00
2024-02-29T10:34:51.816Z,101314.78
2024-02-29T10:37:20.760Z,101308.22
2024-02-29T10:39:49.253Z,101306.48
2024-02-29T10:42:21.494Z,101302.30
2024-02-29T10:44:52.617Z,101301.30
2024-02-29T10:47:23.093Z,101299.92
2024-02-29T10:49:56.379Z,101288.84
2024-02-29T10:52:28.102Z,101286.73
2024-02-29T10:55:06.346Z,101286.63
2024-02-29T10:57:43.748Z,101282.85
2024-02-29T11:00:15.043Z,101277.40
2024-02-29T11:02:46.418Z,101276.09
2024-02-29T11:05:15.936Z,101273.69
2024-02-29T11:07:45.446Z,101266.65
2024-02-29T11:10:14.620Z,101268.83
2024-02-29T11:12:44.855Z,101266.73
2024-02-29T11:15:14.118Z,101265.55
2024-02-29T11:17:47.007Z,101260.06
2024-02-29T11:20:22.861Z,101255.55
2024-02-29T11:22:50.577Z,101252.94
2024-02-29T11:25:23.897Z,101254.21
2024-02-29T11:27:53.594Z,101247.05
2024-02-29T11:30:25.794Z,101244.55
2024-02-29T11:33:09.377Z,101244.69
2024-02-29T11:35:40.222Z,101239.95
2024-02-29T11:38:09.905Z,101239.73
2024-02-29T11:40:38.527Z,101233.27
2024-02-29T11:43:08.020Z,101234.61
2024-02-29T11:45:38.277Z,101229.52
2024-02-29T11:48:07.484Z,101225.78
2024-02-29T11:50:37.996Z,101221.56
2024-02-29T11:53:06.938Z,101215.80
2024-02-29T11:55:36.023Z,101211.98
2024-02-29T11:58:08.462Z,101206.60
2024-02-29T12:00:38.266Z,101201.52
2024-02-29T12:03:07.363Z,101195.30
2024-02-29T12:05:36.250Z,101193.20
2024-02-29T12:08:05.778Z,101187.33
2024-02-29T12:10:35.311Z,101182.23
2024-02-29T12:13:07.663Z,101181.86
2024-02-29T12:15:37.140Z,101179.44
2024-02-29T12:18:09.925Z,101181.36
2024-02-29T12:20:38.949Z,101173.61
2024-02-29T12:23:15.388Z,101174.33
2024-02-29T12:25:43.808Z,101172.06
2024-02-29T12:28:14.897Z,101167.91
2024-02-29T12:30:43.993Z,101158.08
2024-02-29T12:33:13.722Z,101156.27
2024-02-29T12:39:11.504Z,101150.80
2024-02-29T12:41:46.286Z,101144.52
2024-02-29T12:44:15.382Z,101140.08
2024-02-29T12:46:43.809Z,101136.93
2024-02-29T12:49:12.625Z,101135.02
2024-02-29T12:51:41.353Z,101133.92
2024-02-29T12:54:10.354Z,101133.07
2024-02-29T12:56:40.132Z,101124.98
2024-02-29T12:59:08.740Z,101128.11
2024-02-29T13:01:38.604Z,101126.55
2024-02-29T13:04:07.577Z,101125.27
2024-02-29T13:06:36.442Z,101125.70
2024-02-29T13:09:05.476Z,101120.33
2024-02-29T13:11:34.101Z,101121.63
2024-02-29T13:14:04.883Z,101117.70
2024-02-29T13:16:33.438Z,101117.05
2024-02-29T13:19:03.281Z,101119.16
2024-02-29T13:21:31.865Z,101117.02
2024-02-29T13:24:00.375Z,101117.85
2024-02-29T13:26:29.283Z,101114.55
2024-02-29T13:28:57.822Z,101108.97
2024-02-29T13:31:26.626Z,101105.81
2024-02-29T13:33:55.413Z,101106.45
2024-02-29T13:36:23.977Z,101105.75
2024-02-29T13:38:53.161Z,101104.63
2024-02-29T13:41:23.011Z,101101.70
2024-02-29T13:43:51.437Z,101099.56
2024-02-29T13:46:19.954Z,101095.57
2024-02-29T13:48:49.029Z,101094.34
2024-02-29T13:51:17.917Z,101094.15
2024-02-29T13:53:47.392Z,101091.60
2024-02-29T13:56:18.209Z,101088.27
2024-02-29T13:58:49.088Z,101082.34
2024-02-29T14:01:20.201Z,101079.60
2024-02-29T14:03:49.720Z,101085.66
2024-02-29T14:06:22.470Z,101083.63
2024-02-29T14:08:51.298Z,101084.09
2024-02-29T14:11:19.904Z,101082.79
2024-02-29T14:13:48.848Z,101080.16
2024-02-29T14:16:17.611Z,101080.77
2024-02-29T14:18:48.398Z,101073.20
2024-02-29T14:21:17.005Z,101070.91
2024-02-29T14:23:45.620Z,101066.89
2024-02-29T14:26:14.349Z,101064.56
2024-02-29T14:28:44.991Z,101065.90
2024-02-29T14:31:14.305Z,101061.19
2024-02-29T14:33:43.049Z,101061.48
2024-02-29T14:36:12.367Z,101059.21
2024-02-29T14:38:40.943Z,101057.42
2024-02-29T14:41:10.574Z,101059.23
2024-02-29T14:43:40.261Z,101055.42
2024-02-29T14:46:09.459Z,101060.54
2024-02-29T14:48:39.997Z,101055.09
2024-02-29T14:51:08.416Z,101056.77
2024-02-29T14:53:36.985Z,101056.19
2024-02-29T14:56:06.398Z,101055.08
2024-02-29T14:58:35.113Z,101049.80
2024-02-29T15:01:06.209Z,101044.69
2024-02-29T15:03:36.460Z,101043.21
2024-02-29T15:06:08.825Z,101045.60
2024-02-29T15:08:38.215Z,101044.16
2024-02-29T15:11:08.175Z,101044.52
2024-02-29T15:13:38.222Z,101041.14
2024-02-29T15:16:07.442Z,101041.25
2024-02-29T15:18:36.215Z,101033.20
2024-02-29T15:21:07.663Z,101033.04
2024-02-29T15:23:36.445Z,101033.51
2024-02-29T15:26:12.299Z,101031.16
2024-02-29T15:28:41.430Z,101025.50
2024-02-29T15:31:11.435Z,101024.71
2024-02-29T15:33:40.013Z,101026.86
2024-02-29T15:36:09.115Z,101025.48
2024-02-29T15:38:37.791Z,101028.07
2024-02-29T15:41:06.304Z,101029.35
2024-02-29T15:43:34.954Z,101029.42
2024-02-29T15:46:04.318Z,101030.93
2024-02-29T15:48:34.126Z,101027.94
2024-02-29T15:51:04.456Z,101027.55
2024-02-29T15:53:33.126Z,101025.05
2024-02-29T15:56:04.686Z,101028.23
2024-02-29T15:58:34.142Z,101025.58
2024-02-29T16:01:02.991Z,101024.66
2024-02-29T16:03:31.572Z,101022.23
2024-02-29T16:06:00.135Z,101021.16
2024-02-29T16:08:28.726Z,101022.00
2024-02-29T16:10:57.247Z,101025.27
2024-02-29T16:13:26.955Z,101024.59
2024-02-29T16:15:56.158Z,101021.77
2024-02-29T16:18:24.997Z,101017.78
2024-02-29T16:20:53.527Z,101018.29
2024-02-29T16:23:22.421Z,101021.11
2024-02-29T16:25:52.303Z,101019.49
2024-02-29T16:28:21.580Z,101018.92
2024-02-29T16:30:50.092Z,101015.54
2024-02-29T16:33:18.989Z,101016.86
2024-02-29T16:35:47.694Z,101017.83
2024-02-29T16:38:16.225Z,101019.46
2024-02-29T16:40:48.257Z,101022.02
2024-02-29T16:43:21.097Z,101024.58
2024-02-29T16:45:56.056Z,101023.61
2024-02-29T16:48:26.109Z,101026.67
2024-02-29T16:50:56.958Z,101031.11
2024-02-29T16:53:26.349Z,101024.79
2024-02-29T16:55:54.889Z,101024.02
2024-02-29T16:58:24.104Z,101027.61
2024-02-29T17:00:53.441Z,101025.19
2024-02-29T17:03:22.207Z,101024.89
2024-02-29T17:05:53.518Z,101022.59
2024-02-29T17:08:22.402Z,101019.52
2024-02-29T17:10:50.988Z,101021.42
2024-02-29T17:13:20.350Z,101016.71
2024-02-29T17:15:52.007Z,101021.71
2024-02-29T17:18:20.986Z,101020.36
2024-02-29T17:20:49.480Z,101020.35
2024-02-29T17:23:24.314Z,101020.84
2024-02-29T17:25:52.876Z,101019.30
2024-02-29T17:28:21.852Z,101019.20
2024-02-29T17:30:50.356Z,101019.73
2024-02-29T17:33:18.962Z,101018.08
2024-02-29T17:35:48.348Z,101017.64
2024-02-29T17:38:16.812Z,101017.61
2024-02-29T17:40:45.292Z,101017.77
2024-02-29T17:43:18.038Z,101011.46
2024-02-29T17:45:47.070Z,101010.79
2024-02-29T17:48:15.884Z,101007.20
2024-02-29T17:50:44.503Z,101006.64
2024-02-29T17:53:12.951Z,101005.52
2024-02-29T17:55:41.478Z,101003.52
2024-02-29T17:58:10.010Z,101000.84
2024-02-29T18:00:40.724Z,100998.29
2024-02-29T18:03:09.262Z,100997.52
2024-02-29T18:05:37.802Z,100993.32
2024-02-29T18:08:07.544Z,100992.44
2024-02-29T18:10:36.130Z,100994.37
2024-02-29T18:13:05.923Z,100996.13
2024-02-29T18:15:34.825Z,100994.19
2024-02-29T18:18:03.561Z,100993.65
2024-02-29T18:20:32.097Z,100991.67
2024-02-29T18:23:03.318Z,100987.13
2024-02-29T18:25:31.799Z,100985.05
2024-02-29T18:28:03.740Z,100980.28
2024-02-29T18:30:32.491Z,100977.70
2024-02-29T18:33:00.947Z,100975.82
2024-02-29T18:35:30.364Z,100979.67
2024-02-29T18:37:58.836Z,100975.98
2024-02-29T18:40:27.448Z,100973.04
2024-02-29T18:42:56.200Z,100971.96
2024-02-29T18:45:25.083Z,100973.75
2024-02-29T18:47:53.559Z,100975.30
2024-02-29T18:50:22.463Z,100972.71
2024-02-29T18:52:51.088Z,100972.25
2024-02-29T18:55:20.083Z,100970.87
2024-02-29T18:57:48.822Z,100965.30
2024-02-29T19:00:19.472Z,100965.77
2024-02-29T19:02:47.896Z,100962.08
2024-02-29T19:05:17.015Z,100965.00
2024-02-29T19:07:45.565Z,100965.60
2024-02-29T19:10:14.810Z,100962.02
2024-02-29T19:12:43.716Z,100958.98
2024-02-29T19:15:14.685Z,100958.63
2024-02-29T19:17:43.606Z,100958.41
2024-02-29T19:20:14.079Z,100956.27
2024-02-29T19:22:43.186Z,100955.86
2024-02-29T19:25:12.123Z,100951.07
2024-02-29T19:27:41.581Z,100950.40
2024-02-29T19:30:12.133Z,100948.15
2024-02-29T19:32:42.844Z,100946.73
2024-02-29T19:35:12.599Z,100943.12
2024-02-29T19:37:41.508Z,100946.94
2024-02-29T19:40:11.374Z,100943.38
2024-02-29T19:42:41.096Z,100944.06
2024-02-29T19:45:14.106Z,100936.81
2024-02-29T19:47:43.247Z,100935.04
2024-02-29T19:50:12.675Z,100934.13
2024-02-29T19:52:41.614Z,100928.42
2024-02-29T19:55:13.124Z,100927.91
2024-02-29T19:57:42.389Z,100925.77
2024-02-29T20:00:16.894Z,100925.16
2024-02-29T20:02:46.840Z,100923.44
2024-02-29T20:05:15.466Z,100921.10
2024-02-29T20:07:43.967Z,100920.90
2024-02-29T20:10:12.849Z,100918.88
2024-02-29T20:12:41.739Z,100919.45
2024-02-29T20:15:13.574Z,100916.27
2024-02-29T20:17:43.820Z,100917.75
2024-02-29T20:20:13.931Z,100915.13
2024-02-29T20:22:42.588Z,100913.02
2024-02-29T20:25:11.734Z,100911.67
2024-02-29T20:27:51.569Z,100913.52
2024-02-29T20:30:20.750Z,100910.19
2024-02-29T20:32:49.483Z,100907.67
2024-02-29T20:35:18.059Z,100905.63
2024-02-29T20:37:46.476Z,100900.37
2024-02-29T20:40:17.030Z,100900.80
2024-02-29T20:42:45.804Z,100895.27
2024-02-29T20:45:17.462Z,100894.36
2024-02-29T20:47:48.369Z,100892.21
2024-02-29T20:50:17.289Z,100888.39
2024-02-29T20:52:47.246Z,100888.52
2024-02-29T20:55:16.538Z,100887.04
2024-02-29T20:57:45.741Z,100884.54
2024-02-29T21:00:18.110Z,100882.05
2024-02-29T21:02:47.238Z,100877.63
2024-02-29T21:05:19.161Z,100874.70
2024-02-29T21:07:50.946Z,100874.46
2024-02-29T21:10:20.346Z,100864.86
2024-02-29T21:12:49.336Z,100866.27
2024-02-29T21:15:18.147Z,100857.08
2024-02-29T21:17:48.721Z,100857.91
2024-02-29T21:20:17.448Z,100857.52
2024-02-29T21:22:46.194Z,100859.56
2024-02-29T21:25:16.652Z,100855.38
2024-02-29T21:27:45.287Z,100854.04
2024-02-29T21:30:16.436Z,100860.04
2024-02-29T21:32:45.168Z,100856.30
2024-02-29T21:35:15.426Z,100858.05
2024-02-29T21:37:44.307Z,100852.23
2024-02-29T21:40:14.137Z,100852.35
2024-02-29T21:42:43.168Z,100846.66
2024-02-29T21:45:12.248Z,100846.40
2024-02-29T21:47:41.670Z,100849.96
2024-02-29T21:50:12.518Z,100846.52
2024-02-29T21:52:41.482Z,100847.77
2024-02-29T21:55:12.806Z,100846.35
2024-02-29T21:57:41.319Z,100842.73
2024-02-29T22:00:15.020Z,100838.59
2024-02-29T22:02:47.932Z,100838.38
2024-02-29T22:05:17.596Z,100838.84
2024-02-29T22:07:48.015Z,100837.36
2024-02-29T22:10:16.479Z,100833.41
2024-02-29T22:12:45.070Z,100835.04
2024-02-29T22:15:15.523Z,100834.36
2024-02-29T22:17:44.203Z,100835.46
2024-02-29T22:20:13.917Z,100832.75
2024-02-29T22:22:42.633Z,100828.30
2024-02-29T22:25:11.092Z,100829.55
2024-02-29T22:27:39.695Z,100824.02
2024-02-29T22:30:10.832Z,100820.27
2024-02-29T22:32:39.519Z,100823.14
2024-02-29T22:35:09.222Z,100818.84
2024-02-29T22:37:37.746Z,100813.66
2024-02-29T22:40:08.824Z,100814.23
2024-02-29T22:42:37.555Z,100810.38
2024-02-29T22:45:09.634Z,100808.57
2024-02-29T22:47:38.445Z,100808.50
2024-02-29T22:50:10.439Z,100806.67
2024-02-29T22:52:38.905Z,100803.05
2024-02-29T22:55:08.532Z,100800.52
2024-02-29T22:57:37.240Z,100793.94
2024-02-29T23:00:10.601Z,100793.23
2024-02-29T23:02:40.408Z,100787.91
2024-02-29T23:05:09.214Z,100786.44
2024-02-29T23:07:38.051Z,100785.77
2024-02-29T23:10:09.221Z,100783.67
2024-02-29T23:12:37.727Z,100784.42
2024-02-29T23:15:07.966Z,100780.30
2024-02-29T23:17:37.089Z,100781.88
2024-02-29T23:20:07.436Z,100780.80
2024-02-29T23:22:35.878Z,100775.11
2024-02-29T23:25:05.515Z,100777.41
2024-02-29T23:27:34.349Z,100774.26
2024-02-29T23:30:03.108Z,100772.79
2024-02-29T23:32:31.577Z,100777.13
2024-02-29T23:35:00.082Z,100775.15
2024-02-29T23:37:28.488Z,100772.71
2024-02-29T23:39:57.538Z,100772.59
2024-02-29T23:42:26.103Z,100764.98
2024-02-29T23:44:55.356Z,100764.56
2024-02-29T23:47:23.858Z,100761.11
2024-02-29T23:49:52.498Z,100757.89
2024-02-29T23:52:21.994Z,100757.40
2024-02-29T23:54:50.623Z,100757.56
2024-02-29T23:57:19.480Z,100754.35
2024-02-29T23:59:48.435Z,100753.58
